createdAt,value
2019-05-09T00:03:03.598Z,11.80
2019-05-09T00:07:20.366Z,11.80
2019-05-09T00:11:37.084Z,11.80
2019-05-09T00:15:54.158Z,11.70
2019-05-09T00:20:25.495Z,11.70
2019-05-09T00:24:42.055Z,11.70
2019-05-09T00:29:03.785Z,11.70
2019-05-09T00:33:23.566Z,11.70
2019-05-09T00:37:53.847Z,11.60
2019-05-09T00:42:10.346Z,11.60
2019-05-09T00:46:28.788Z,11.60
2019-05-09T00:50:45.342Z,11.60
2019-05-09T00:55:04.313Z,11.60
2019-05-09T00:59:20.821Z,11.50
2019-05-09T01:03:37.448Z,11.50
2019-05-09T01:07:53.973Z,11.50
2019-05-09T01:12:10.483Z,11.50
2019-05-09T01:16:27.021Z,11.50
2019-05-09T01:20:44.116Z,11.40
2019-05-09T01:25:01.177Z,11.40
2019-05-09T01:29:18.209Z,11.30
2019-05-09T01:33:53.459Z,11.30
2019-05-09T01:38:10.187Z,11.30
2019-05-09T01:42:26.860Z,11.20
2019-05-09T01:46:43.668Z,11.10
2019-05-09T01:51:00.357Z,11.10
2019-05-09T01:55:17.095Z,11.10
2019-05-09T01:59:34.248Z,11.10
2019-05-09T02:03:50.946Z,11.10
2019-05-09T02:08:07.603Z,11.10
2019-05-09T02:12:24.664Z,11.10
2019-05-09T02:16:43.207Z,11.10
2019-05-09T02:20:59.733Z,11.00
2019-05-09T02:25:16.485Z,11.00
2019-05-09T02:29:33.755Z,11.00
2019-05-09T02:33:50.476Z,10.90
2019-05-09T02:38:09.461Z,10.90
2019-05-09T02:42:27.313Z,10.90
2019-05-09T02:46:58.906Z,10.80
2019-05-09T02:51:18.206Z,10.80
2019-05-09T02:55:34.066Z,10.80
2019-05-09T02:59:53.539Z,10.70
2019-05-09T03:04:10.242Z,10.70
2019-05-09T03:08:29.529Z,10.70
2019-05-09T03:12:49.783Z,10.70
2019-05-09T03:17:04.021Z,10.70
2019-05-09T03:21:31.621Z,10.80
2019-05-09T03:25:48.574Z,10.70
2019-05-09T03:30:11.921Z,10.70
2019-05-09T03:34:29.795Z,10.70
2019-05-09T03:38:47.450Z,10.70
2019-05-09T03:43:05.137Z,10.80
2019-05-09T03:47:31.406Z,10.70
2019-05-09T03:51:48.370Z,10.70
2019-05-09T03:56:07.908Z,10.70
2019-05-09T04:00:24.682Z,10.70
2019-05-09T04:04:41.252Z,10.70
2019-05-09T04:08:58.509Z,10.60
2019-05-09T04:13:17.875Z,10.60
2019-05-09T04:17:47.530Z,10.60
2019-05-09T04:22:04.514Z,10.60
2019-05-09T04:26:30.408Z,10.60
2019-05-09T04:30:47.756Z,10.60
2019-05-09T04:35:05.216Z,10.60
2019-05-09T04:39:23.865Z,10.70
2019-05-09T04:43:42.568Z,10.70
2019-05-09T04:47:59.065Z,10.70
2019-05-09T04:52:17.910Z,10.80
2019-05-09T04:56:39.049Z,10.70
2019-05-09T05:01:07.571Z,10.70
2019-05-09T05:05:24.077Z,10.70
2019-05-09T05:09:41.043Z,10.80
2019-05-09T05:13:58.697Z,10.80
2019-05-09T05:18:17.382Z,10.80
2019-05-09T05:22:35.852Z,10.90
2019-05-09T05:26:52.397Z,10.90
2019-05-09T05:31:08.882Z,11.00
2019-05-09T05:35:28.471Z,11.00
2019-05-09T05:39:45.123Z,11.00
2019-05-09T05:44:01.626Z,11.10
2019-05-09T05:48:20.777Z,11.10
2019-05-09T05:52:37.650Z,11.20
2019-05-09T05:56:54.267Z,11.30
2019-05-09T06:01:10.843Z,11.50
2019-05-09T06:05:27.919Z,11.60
2019-05-09T06:09:44.504Z,11.80
2019-05-09T06:14:08.545Z,11.90
2019-05-09T06:18:20.084Z,12.10
2019-05-09T06:22:38.205Z,12.20
2019-05-09T06:26:54.979Z,12.30
2019-05-09T06:31:12.032Z,12.40
2019-05-09T06:35:28.535Z,12.60
2019-05-09T06:39:45.212Z,12.80
2019-05-09T06:44:18.200Z,12.90
2019-05-09T06:48:34.363Z,13.00
2019-05-09T06:52:50.878Z,13.00
2019-05-09T06:57:08.078Z,12.80
2019-05-09T07:01:29.753Z,12.70
2019-05-09T07:05:52.120Z,12.60
2019-05-09T07:10:10.105Z,12.40
2019-05-09T07:14:31.906Z,12.20
2019-05-09T07:18:45.809Z,12.20
2019-05-09T07:23:02.615Z,12.40
2019-05-09T07:27:19.155Z,12.50
2019-05-09T07:31:40.469Z,12.80
2019-05-09T07:35:58.082Z,13.20
2019-05-09T07:40:17.809Z,13.80
2019-05-09T07:44:48.012Z,14.20
2019-05-09T07:48:54.082Z,14.10
2019-05-09T07:53:11.568Z,13.90
2019-05-09T07:57:28.654Z,13.80
2019-05-09T08:01:45.216Z,13.80
2019-05-09T08:06:01.858Z,13.80
2019-05-09T08:10:18.373Z,13.90
2019-05-09T08:14:37.534Z,14.10
2019-05-09T08:18:53.560Z,14.00
2019-05-09T08:23:10.092Z,14.00
2019-05-09T08:27:30.162Z,15.00
2019-05-09T08:31:46.410Z,16.00
2019-05-09T08:36:03.897Z,16.40
2019-05-09T08:40:21.456Z,17.20
2019-05-09T08:44:42.008Z,17.30
2019-05-09T08:48:57.756Z,17.10
2019-05-09T08:53:14.348Z,17.10
2019-05-09T08:57:30.910Z,16.80
2019-05-09T09:02:10.682Z,16.40
2019-05-09T09:06:08.095Z,16.30
2019-05-09T09:10:24.550Z,16.40
2019-05-09T09:14:41.053Z,16.40
2019-05-09T09:18:58.567Z,15.90
2019-05-09T09:23:17.868Z,15.80
2019-05-09T09:27:34.086Z,15.90
2019-05-09T09:31:50.606Z,16.00
2019-05-09T09:36:08.737Z,16.40
2019-05-09T09:40:27.695Z,17.20
2019-05-09T09:44:43.722Z,17.90
2019-05-09T09:49:00.242Z,17.70
2019-05-09T09:53:18.438Z,18.10
2019-05-09T09:57:37.633Z,18.50
2019-05-09T10:02:01.554Z,18.50
2019-05-09T10:06:18.188Z,18.80
2019-05-09T10:10:36.105Z,19.20
2019-05-09T10:15:12.183Z,19.60
2019-05-09T10:19:48.171Z,19.80
2019-05-09T10:24:05.297Z,19.50
2019-05-09T10:28:21.977Z,18.80
2019-05-09T10:32:38.654Z,18.60
2019-05-09T10:36:55.283Z,18.80
2019-05-09T10:41:11.821Z,19.10
2019-05-09T10:45:33.453Z,19.30
2019-05-09T10:49:50.361Z,19.10
2019-05-09T10:54:08.151Z,19.20
2019-05-09T10:58:25.370Z,19.70
2019-05-09T11:02:41.846Z,20.60
2019-05-09T11:06:58.752Z,21.20
2019-05-09T11:11:17.845Z,22.10
2019-05-09T11:15:34.434Z,22.90
2019-05-09T11:19:51.063Z,22.70
2019-05-09T11:24:08.333Z,21.20
2019-05-09T11:28:25.244Z,20.10
2019-05-09T11:32:41.836Z,19.50
2019-05-09T11:36:58.368Z,19.80
2019-05-09T11:41:18.822Z,20.40
2019-05-09T11:45:33.845Z,21.50
2019-05-09T11:49:50.394Z,21.20
2019-05-09T11:54:09.184Z,21.50
2019-05-09T11:58:27.896Z,21.80
2019-05-09T12:02:44.212Z,22.70
2019-05-09T12:07:01.141Z,23.80
2019-05-09T12:11:18.702Z,23.70
2019-05-09T12:15:38.766Z,22.60
2019-05-09T12:20:09.024Z,22.10
2019-05-09T12:24:12.743Z,24.00
2019-05-09T12:28:29.261Z,26.90
2019-05-09T12:32:45.745Z,29.20
2019-05-09T12:37:02.502Z,30.20
2019-05-09T12:41:19.383Z,31.40
2019-05-09T12:45:38.557Z,30.40
2019-05-09T12:49:54.592Z,29.40
2019-05-09T12:54:11.198Z,30.50
2019-05-09T12:58:28.969Z,31.40
2019-05-09T13:02:45.489Z,31.60
2019-05-09T13:07:02.654Z,30.20
2019-05-09T13:11:20.151Z,29.70
2019-05-09T13:15:40.947Z,31.70
2019-05-09T13:19:58.570Z,33.40
2019-05-09T13:24:19.463Z,34.10
2019-05-09T13:28:34.104Z,32.80
2019-05-09T13:32:50.667Z,32.70
2019-05-09T13:37:09.152Z,34.20
2019-05-09T13:41:26.016Z,34.60
2019-05-09T13:45:42.489Z,33.30
2019-05-09T13:49:59.325Z,33.00
2019-05-09T13:54:18.466Z,33.30
2019-05-09T13:58:35.040Z,32.90
2019-05-09T14:02:54.900Z,28.10
2019-05-09T14:07:11.569Z,24.30
2019-05-09T14:11:29.126Z,22.40
2019-05-09T14:15:48.693Z,23.80
2019-05-09T14:20:08.830Z,25.40
2019-05-09T14:24:24.919Z,24.30
2019-05-09T14:28:41.411Z,23.50
2019-05-09T14:33:00.277Z,24.40
2019-05-09T14:37:18.005Z,25.70
2019-05-09T14:41:34.839Z,24.40
2019-05-09T14:45:51.465Z,24.30
2019-05-09T14:50:09.988Z,27.70
2019-05-09T14:54:28.921Z,26.40
2019-05-09T14:58:45.713Z,24.20
2019-05-09T15:03:02.376Z,23.50
2019-05-09T15:07:19.512Z,23.70
2019-05-09T15:11:39.487Z,23.40
2019-05-09T15:15:57.732Z,24.20
2019-05-09T15:20:14.351Z,23.30
2019-05-09T15:24:30.860Z,21.60
2019-05-09T15:28:48.375Z,20.10
2019-05-09T15:33:05.120Z,19.00
2019-05-09T15:37:21.640Z,18.50
2019-05-09T15:41:38.696Z,18.30
2019-05-09T15:46:08.353Z,18.00
2019-05-09T15:50:24.581Z,17.90
2019-05-09T15:54:41.082Z,17.90
2019-05-09T15:58:58.117Z,18.50
2019-05-09T16:03:14.842Z,19.00
2019-05-09T16:07:31.366Z,18.90
2019-05-09T16:11:48.542Z,18.70
2019-05-09T16:16:05.589Z,18.60
2019-05-09T16:20:36.273Z,18.30
2019-05-09T16:24:40.639Z,18.00
2019-05-09T16:28:58.524Z,17.70
2019-05-09T16:33:15.086Z,17.40
2019-05-09T16:37:52.803Z,17.20
2019-05-09T16:41:50.262Z,16.90
2019-05-09T16:46:07.578Z,16.80
2019-05-09T16:50:24.707Z,16.60
2019-05-09T16:54:43.477Z,16.30
2019-05-09T16:58:59.978Z,16.00
2019-05-09T17:03:18.712Z,15.90
2019-05-09T17:07:35.247Z,15.80
2019-05-09T17:11:51.900Z,15.80
2019-05-09T17:16:08.790Z,15.70
2019-05-09T17:20:27.844Z,15.80
2019-05-09T17:24:45.455Z,15.80
2019-05-09T17:29:01.954Z,15.80
2019-05-09T17:33:19.191Z,15.70
2019-05-09T17:37:37.942Z,15.60
2019-05-09T17:41:54.690Z,15.50
2019-05-09T17:46:11.618Z,15.50
2019-05-09T17:50:28.732Z,15.40
2019-05-09T17:54:48.506Z,15.30
2019-05-09T17:59:08.323Z,15.20
2019-05-09T18:03:25.218Z,15.10
2019-05-09T18:07:42.279Z,15.00
2019-05-09T18:11:58.801Z,14.90
2019-05-09T18:16:18.747Z,14.80
2019-05-09T18:20:34.803Z,14.80
2019-05-09T18:24:51.317Z,14.70
2019-05-09T18:29:09.385Z,14.60
2019-05-09T18:33:38.012Z,14.30
2019-05-09T18:37:54.675Z,14.00
2019-05-09T18:42:14.558Z,13.80
2019-05-09T18:46:31.101Z,13.40
2019-05-09T18:50:50.745Z,13.10
2019-05-09T18:55:08.937Z,12.80
2019-05-09T18:59:30.811Z,12.60
2019-05-09T19:03:48.485Z,12.40
2019-05-09T19:08:05.036Z,12.30
2019-05-09T19:12:21.670Z,12.20
2019-05-09T19:16:51.807Z,12.20
2019-05-09T19:21:22.425Z,12.20
2019-05-09T19:25:41.118Z,12.20
2019-05-09T19:29:57.607Z,12.20
2019-05-09T19:34:15.537Z,12.10
2019-05-09T19:38:33.938Z,12.10
2019-05-09T19:42:50.848Z,11.90
2019-05-09T19:47:09.753Z,11.70
2019-05-09T19:51:27.476Z,11.60
2019-05-09T19:55:47.828Z,11.50
2019-05-09T20:00:09.289Z,11.50
2019-05-09T20:04:25.936Z,11.40
2019-05-09T20:08:44.318Z,11.20
2019-05-09T20:13:08.646Z,11.20
2019-05-09T20:17:25.311Z,11.20
2019-05-09T20:21:41.810Z,11.20
2019-05-09T20:25:58.588Z,11.20
2019-05-09T20:30:15.335Z,11.20
2019-05-09T20:34:32.091Z,11.20
2019-05-09T20:38:48.684Z,11.20
2019-05-09T20:43:05.286Z,11.20
2019-05-09T20:47:22.104Z,11.20
2019-05-09T20:51:38.660Z,11.20
2019-05-09T20:55:55.517Z,11.30
2019-05-09T21:00:12.398Z,11.30
2019-05-09T21:04:28.840Z,11.30
2019-05-09T21:08:45.294Z,11.30
2019-05-09T21:13:01.822Z,11.30
2019-05-09T21:17:18.385Z,11.30
2019-05-09T21:21:34.931Z,11.20
2019-05-09T21:25:51.459Z,11.20
2019-05-09T21:30:08.512Z,11.10
2019-05-09T21:34:25.214Z,11.00
2019-05-09T21:38:41.753Z,11.00
2019-05-09T21:42:58.599Z,11.00
2019-05-09T21:47:15.138Z,11.00
2019-05-09T21:51:31.827Z,11.10
2019-05-09T21:55:48.312Z,11.10
2019-05-09T22:00:13.201Z,11.20
2019-05-09T22:04:30.010Z,11.20
2019-05-09T22:08:46.602Z,11.20
2019-05-09T22:13:03.217Z,11.30
2019-05-09T22:17:21.683Z,11.30
2019-05-09T22:21:38.454Z,11.30
2019-05-09T22:25:55.008Z,11.30
2019-05-09T22:30:14.036Z,11.30
2019-05-09T22:34:30.488Z,11.40
2019-05-09T22:38:46.909Z,11.20
2019-05-09T22:43:03.824Z,11.10
2019-05-09T22:47:20.279Z,11.00
2019-05-09T22:51:36.808Z,10.90
2019-05-09T22:55:53.336Z,10.80
2019-05-09T23:00:10.168Z,10.70
2019-05-09T23:04:26.591Z,10.70
2019-05-09T23:08:43.278Z,10.60
2019-05-09T23:12:59.730Z,10.60
2019-05-09T23:17:16.506Z,10.60
2019-05-09T23:21:32.951Z,10.70
2019-05-09T23:25:49.371Z,10.60
2019-05-09T23:30:06.803Z,10.50
2019-05-09T23:34:23.448Z,10.50
2019-05-09T23:38:58.186Z,10.40
2019-05-09T23:43:14.642Z,10.50
2019-05-09T23:47:31.090Z,10.40
2019-05-09T23:51:48.634Z,10.40
2019-05-09T23:56:23.734Z,10.40
